Classifiche di sempre
Migliori tempi personali validi di team tra tutti gli eventi e le stagioni. Ogni team compare una sola volta per divisione.
Cerca per nome e apri la pagina in cui è classificato questo record di divisione.
139,649 team in classifica
| Pos. | Pos. AG | Team | Nazionalità | Categoria età | TempoMiglior tempo | Distacco |
|---|---|---|---|---|---|---|
| 138826 | #15416 | Courtney Allen & gavi crankUSA · W 35-39 · AG #15416 | USA | W 35-39 | 2:20:26 | +87:05 |
| 138827 | #21 | Rosemary Reilly-Chammat & Diane GusminiUSA · W 65-69 · AG #21 | USA | W 65-69 | 2:20:26 | +87:05 |
| 138828 | #43663 | Anusha Rao & Niharika SasanapuriIND · W 30-34 · AG #43663 | IND | W 30-34 | 2:20:26 | +87:05 |
| 138829 | #19899 | Rachel Lande & Massie MotubatseW 40-44 · AG #19899 | -- | W 40-44 | 2:20:28 | +87:07 |
| 138830 | #19900 | Lisa RICE & Cheryl SIMONSENUSA · W 40-44 · AG #19900 | USA | W 40-44 | 2:20:30 | +87:09 |
| 138831 | -- | Maharani Chandradewi & Shinta Angriyana Putri AlifahINA · W WU29 | INA | W WU29 | 2:20:30 | +87:09 |
| 138832 | #43664 | Amnita Kaur & Leong Yu XuanSIN · W 30-34 · AG #43664 | SIN | W 30-34 | 2:20:30 | +87:09 |
| 138833 | #4767 | Abegail Magpayo & Romela Cruz SononPHI · W 45-49 · AG #4767 | PHI | W 45-49 | 2:20:30 | +87:09 |
| 138834 | #3357 | Beth Davis-Salonek & Nan KirchhevelUSA · W 50-54 · AG #3357 | USA | W 50-54 | 2:20:31 | +87:10 |
| 138835 | #20644 | Seda Unal & Michelle MiddendorpNED · W 25-29 · AG #20644 | NED | W 25-29 | 2:20:31 | +87:10 |
| 138836 | #43665 | Mallika Bunneam & Chatsuda RodphaiTHA · W 30-34 · AG #43665 | THA | W 30-34 | 2:20:31 | +87:10 |
| 138837 | #3358 | Rosa Rossel & Nohemi Pernalette MMEX · W 50-54 · AG #3358 | MEX | W 50-54 | 2:20:31 | +87:10 |
| 138838 | #43666 | 愛恩 徐 & 均庭 簡TPE · W 30-34 · AG #43666 | TPE | W 30-34 | 2:20:33 | +87:12 |
| 138839 | #15417 | Prenissa Perumal & Heidi NaidooRSA · W 35-39 · AG #15417 | RSA | W 35-39 | 2:20:36 | +87:15 |
| 138840 | #43667 | Simbonge Nxumalo & Nomvuselelo NgemaRSA · W 30-34 · AG #43667 | RSA | W 30-34 | 2:20:36 | +87:15 |
| 138841 | #19901 | Angela Di Santi & Rosa MonzoITA · W 40-44 · AG #19901 | ITA | W 40-44 | 2:20:36 | +87:15 |
| 138842 | #3359 | Tammy Pipkin & Jamie De JesusUSA · W 50-54 · AG #3359 | USA | W 50-54 | 2:20:38 | +87:17 |
| 138843 | #43668 | Chipo Mashava & Mmalesiba TeffuRSA · W 30-34 · AG #43668 | RSA | W 30-34 | 2:20:42 | +87:21 |
| 138844 | #19902 | Nanda Hoekstra & Jetske BiermaNED · W 40-44 · AG #19902 | NED | W 40-44 | 2:20:42 | +87:21 |
| 138845 | #43669 | Vavine Filimone & Lenisa ManuW 30-34 · AG #43669 | -- | W 30-34 | 2:20:42 | +87:21 |
| 138846 | #20645 | Samantha Nisbet & Dominique NiglioUSA · W 25-29 · AG #20645 | USA | W 25-29 | 2:20:42 | +87:21 |
| 138847 | #20646 | Manu Krishna & Arushi SharmaIND · W 25-29 · AG #20646 | IND | W 25-29 | 2:20:42 | +87:21 |
| 138848 | #73 | Katharina Winterberg & Diana Buben-BrüggemannGER · W 50-59 · AG #73 | GER | W 50-59 | 2:20:43 | +87:22 |
| 138849 | #4768 | Leeann Ross & Angela LavelleGBR · W 45-49 · AG #4768 | GBR | W 45-49 | 2:20:43 | +87:22 |
| 138850 | #11356 | Cata Cabello & Vale LineroCOL · W 16-24 · AG #11356 | COL | W 16-24 | 2:20:43 | +87:22 |
Pagina 5,554 di 5,586